sensor_id;sensor_type;location;lat;lon;timestamp;P1;durP1;ratioP1;P2;durP2;ratioP2
30378;SDS011;17168;49.164;9.060;2022-10-16T00:01:22;7.28;;;1.92;;
30378;SDS011;17168;49.164;9.060;2022-10-16T00:03:55;2.15;;;1.30;;
30378;SDS011;17168;49.164;9.060;2022-10-16T00:06:28;3.60;;;1.50;;
30378;SDS011;17168;49.164;9.060;2022-10-16T00:09:01;1.95;;;1.20;;
30378;SDS011;17168;49.164;9.060;2022-10-16T00:11:34;1.38;;;1.20;;
30378;SDS011;17168;49.164;9.060;2022-10-16T00:14:11;5.03;;;1.20;;
30378;SDS011;17168;49.164;9.060;2022-10-16T00:16:44;4.70;;;1.02;;
30378;SDS011;17168;49.164;9.060;2022-10-16T00:19:16;5.75;;;1.17;;
30378;SDS011;17168;49.164;9.060;2022-10-16T00:21:48;2.13;;;1.10;;
30378;SDS011;17168;49.164;9.060;2022-10-16T00:24:20;2.55;;;1.20;;
30378;SDS011;17168;49.164;9.060;2022-10-16T00:26:52;2.92;;;1.20;;
30378;SDS011;17168;49.164;9.060;2022-10-16T00:29:25;2.25;;;1.00;;
30378;SDS011;17168;49.164;9.060;2022-10-16T00:31:56;1.70;;;1.10;;
30378;SDS011;17168;49.164;9.060;2022-10-16T00:34:28;3.92;;;1.13;;
30378;SDS011;17168;49.164;9.060;2022-10-16T00:37:00;2.28;;;1.13;;
30378;SDS011;17168;49.164;9.060;2022-10-16T00:39:32;3.03;;;1.27;;
30378;SDS011;17168;49.164;9.060;2022-10-16T00:42:04;2.80;;;1.20;;
30378;SDS011;17168;49.164;9.060;2022-10-16T00:44:45;3.40;;;1.20;;
30378;SDS011;17168;49.164;9.060;2022-10-16T00:47:21;2.28;;;1.30;;
30378;SDS011;17168;49.164;9.060;2022-10-16T00:49:58;1.13;;;1.05;;
30378;SDS011;17168;49.164;9.060;2022-10-16T00:52:34;2.90;;;1.20;;
30378;SDS011;17168;49.164;9.060;2022-10-16T00:55:07;4.20;;;1.20;;
30378;SDS011;17168;49.164;9.060;2022-10-16T00:57:40;5.03;;;1.25;;
30378;SDS011;17168;49.164;9.060;2022-10-16T01:00:16;2.67;;;1.20;;
30378;SDS011;17168;49.164;9.060;2022-10-16T01:02:51;1.17;;;1.08;;
30378;SDS011;17168;49.164;9.060;2022-10-16T01:05:24;4.05;;;1.40;;
30378;SDS011;17168;49.164;9.060;2022-10-16T01:08:03;2.70;;;1.30;;
30378;SDS011;17168;49.164;9.060;2022-10-16T01:10:41;3.28;;;1.63;;
30378;SDS011;17168;49.164;9.060;2022-10-16T01:13:21;1.25;;;0.98;;
30378;SDS011;17168;49.164;9.060;2022-10-16T01:15:59;4.03;;;1.20;;
30378;SDS011;17168;49.164;9.060;2022-10-16T01:18:37;1.25;;;1.15;;
30378;SDS011;17168;49.164;9.060;2022-10-16T01:21:15;1.65;;;1.10;;
30378;SDS011;17168;49.164;9.060;2022-10-16T01:23:53;1.67;;;1.40;;
30378;SDS011;17168;49.164;9.060;2022-10-16T01:26:36;1.75;;;1.08;;
30378;SDS011;17168;49.164;9.060;2022-10-16T01:29:23;1.92;;;1.40;;
30378;SDS011;17168;49.164;9.060;2022-10-16T01:31:59;3.08;;;1.42;;
30378;SDS011;17168;49.164;9.060;2022-10-16T01:34:37;5.15;;;1.33;;
30378;SDS011;17168;49.164;9.060;2022-10-16T01:37:18;4.65;;;1.10;;
30378;SDS011;17168;49.164;9.060;2022-10-16T01:40:00;4.25;;;1.35;;
30378;SDS011;17168;49.164;9.060;2022-10-16T01:42:37;1.88;;;1.25;;
30378;SDS011;17168;49.164;9.060;2022-10-16T01:45:14;4.53;;;1.30;;
30378;SDS011;17168;49.164;9.060;2022-10-16T01:47:49;1.48;;;1.00;;
30378;SDS011;17168;49.164;9.060;2022-10-16T01:50:23;5.03;;;1.13;;
30378;SDS011;17168;49.164;9.060;2022-10-16T01:52:57;5.20;;;1.17;;
30378;SDS011;17168;49.164;9.060;2022-10-16T01:55:31;2.60;;;0.90;;
30378;SDS011;17168;49.164;9.060;2022-10-16T01:58:05;1.10;;;1.00;;
30378;SDS011;17168;49.164;9.060;2022-10-16T02:00:41;1.40;;;1.10;;
30378;SDS011;17168;49.164;9.060;2022-10-16T02:03:16;3.47;;;1.08;;
30378;SDS011;17168;49.164;9.060;2022-10-16T02:05:51;3.20;;;1.05;;
30378;SDS011;17168;49.164;9.060;2022-10-16T02:08:25;2.15;;;1.08;;
30378;SDS011;17168;49.164;9.060;2022-10-16T02:11:00;1.23;;;1.08;;
30378;SDS011;17168;49.164;9.060;2022-10-16T02:13:34;5.90;;;1.10;;
30378;SDS011;17168;49.164;9.060;2022-10-16T02:16:11;5.40;;;1.10;;
30378;SDS011;17168;49.164;9.060;2022-10-16T02:18:44;3.72;;;1.20;;
30378;SDS011;17168;49.164;9.060;2022-10-16T02:21:17;6.90;;;1.20;;
30378;SDS011;17168;49.164;9.060;2022-10-16T02:23:55;2.53;;;1.15;;
30378;SDS011;17168;49.164;9.060;2022-10-16T02:26:35;5.60;;;1.30;;
30378;SDS011;17168;49.164;9.060;2022-10-16T02:29:12;4.20;;;1.13;;
30378;SDS011;17168;49.164;9.060;2022-10-16T02:31:50;4.32;;;1.15;;
30378;SDS011;17168;49.164;9.060;2022-10-16T02:34:25;2.33;;;1.05;;
30378;SDS011;17168;49.164;9.060;2022-10-16T02:39:31;2.97;;;0.90;;
30378;SDS011;17168;49.164;9.060;2022-10-16T02:42:03;6.90;;;1.23;;
30378;SDS011;17168;49.164;9.060;2022-10-16T02:44:35;2.30;;;1.08;;
30378;SDS011;17168;49.164;9.060;2022-10-16T02:47:08;2.55;;;1.10;;
30378;SDS011;17168;49.164;9.060;2022-10-16T02:49:45;1.63;;;1.10;;
30378;SDS011;17168;49.164;9.060;2022-10-16T02:52:17;2.50;;;1.20;;
30378;SDS011;17168;49.164;9.060;2022-10-16T02:54:49;1.33;;;1.15;;
30378;SDS011;17168;49.164;9.060;2022-10-16T02:57:21;2.55;;;1.20;;
30378;SDS011;17168;49.164;9.060;2022-10-16T02:59:53;2.78;;;1.10;;
30378;SDS011;17168;49.164;9.060;2022-10-16T03:02:26;1.92;;;1.20;;
30378;SDS011;17168;49.164;9.060;2022-10-16T03:04:58;1.30;;;1.05;;
30378;SDS011;17168;49.164;9.060;2022-10-16T03:07:30;2.72;;;1.15;;
30378;SDS011;17168;49.164;9.060;2022-10-16T03:10:01;5.60;;;1.20;;
30378;SDS011;17168;49.164;9.060;2022-10-16T03:12:34;1.27;;;1.17;;
30378;SDS011;17168;49.164;9.060;2022-10-16T03:15:06;3.05;;;1.20;;
30378;SDS011;17168;49.164;9.060;2022-10-16T03:17:40;2.90;;;0.95;;
30378;SDS011;17168;49.164;9.060;2022-10-16T03:20:12;3.08;;;1.10;;
30378;SDS011;17168;49.164;9.060;2022-10-16T03:22:43;0.93;;;0.90;;
30378;SDS011;17168;49.164;9.060;2022-10-16T03:25:15;1.38;;;0.98;;
30378;SDS011;17168;49.164;9.060;2022-10-16T03:27:47;3.72;;;1.42;;
30378;SDS011;17168;49.164;9.060;2022-10-16T03:30:19;2.85;;;1.10;;
30378;SDS011;17168;49.164;9.060;2022-10-16T03:32:53;2.53;;;1.30;;
30378;SDS011;17168;49.164;9.060;2022-10-16T03:35:25;1.52;;;1.20;;
30378;SDS011;17168;49.164;9.060;2022-10-16T03:37:57;2.30;;;1.10;;
30378;SDS011;17168;49.164;9.060;2022-10-16T03:40:29;1.30;;;1.17;;
30378;SDS011;17168;49.164;9.060;2022-10-16T03:43:03;3.42;;;1.27;;
30378;SDS011;17168;49.164;9.060;2022-10-16T03:45:34;3.28;;;1.40;;
30378;SDS011;17168;49.164;9.060;2022-10-16T03:48:08;1.10;;;1.02;;
30378;SDS011;17168;49.164;9.060;2022-10-16T03:50:39;4.05;;;1.13;;
30378;SDS011;17168;49.164;9.060;2022-10-16T03:53:11;1.65;;;1.20;;
30378;SDS011;17168;49.164;9.060;2022-10-16T03:55:43;2.13;;;1.20;;
30378;SDS011;17168;49.164;9.060;2022-10-16T03:58:16;1.83;;;1.30;;
30378;SDS011;17168;49.164;9.060;2022-10-16T04:00:48;4.60;;;1.50;;
30378;SDS011;17168;49.164;9.060;2022-10-16T04:03:21;8.57;;;1.38;;
30378;SDS011;17168;49.164;9.060;2022-10-16T04:05:54;4.60;;;1.40;;
30378;SDS011;17168;49.164;9.060;2022-10-16T04:08:26;2.65;;;1.40;;
30378;SDS011;17168;49.164;9.060;2022-10-16T04:10:58;3.03;;;1.50;;
30378;SDS011;17168;49.164;9.060;2022-10-16T04:13:29;6.03;;;1.50;;
30378;SDS011;17168;49.164;9.060;2022-10-16T04:16:01;3.03;;;1.40;;
30378;SDS011;17168;49.164;9.060;2022-10-16T04:18:34;1.83;;;1.30;;
30378;SDS011;17168;49.164;9.060;2022-10-16T04:21:06;2.58;;;1.40;;
30378;SDS011;17168;49.164;9.060;2022-10-16T04:23:38;1.30;;;1.20;;
30378;SDS011;17168;49.164;9.060;2022-10-16T04:26:11;2.42;;;1.20;;
30378;SDS011;17168;49.164;9.060;2022-10-16T04:28:43;5.30;;;1.60;;
30378;SDS011;17168;49.164;9.060;2022-10-16T04:31:15;2.40;;;1.30;;
30378;SDS011;17168;49.164;9.060;2022-10-16T04:33:48;2.92;;;1.30;;
30378;SDS011;17168;49.164;9.060;2022-10-16T04:36:20;3.47;;;1.50;;
30378;SDS011;17168;49.164;9.060;2022-10-16T04:38:57;4.55;;;1.38;;
30378;SDS011;17168;49.164;9.060;2022-10-16T04:41:28;1.42;;;1.30;;
30378;SDS011;17168;49.164;9.060;2022-10-16T04:44:00;1.50;;;1.40;;
30378;SDS011;17168;49.164;9.060;2022-10-16T04:46:32;3.17;;;1.60;;
30378;SDS011;17168;49.164;9.060;2022-10-16T04:49:05;2.45;;;1.45;;
30378;SDS011;17168;49.164;9.060;2022-10-16T04:51:37;2.60;;;1.50;;
30378;SDS011;17168;49.164;9.060;2022-10-16T04:54:09;2.42;;;1.70;;
30378;SDS011;17168;49.164;9.060;2022-10-16T04:56:41;4.18;;;1.50;;
30378;SDS011;17168;49.164;9.060;2022-10-16T04:59:18;3.35;;;1.40;;
30378;SDS011;17168;49.164;9.060;2022-10-16T05:01:51;4.55;;;1.45;;
30378;SDS011;17168;49.164;9.060;2022-10-16T05:04:24;2.08;;;1.50;;
30378;SDS011;17168;49.164;9.060;2022-10-16T05:06:56;4.20;;;1.80;;
30378;SDS011;17168;49.164;9.060;2022-10-16T05:09:28;3.25;;;1.73;;
30378;SDS011;17168;49.164;9.060;2022-10-16T05:12:00;1.58;;;1.42;;
30378;SDS011;17168;49.164;9.060;2022-10-16T05:14:31;2.83;;;1.65;;
30378;SDS011;17168;49.164;9.060;2022-10-16T05:17:03;3.63;;;1.80;;
30378;SDS011;17168;49.164;9.060;2022-10-16T05:19:36;3.03;;;1.70;;
30378;SDS011;17168;49.164;9.060;2022-10-16T05:22:08;5.28;;;1.60;;
30378;SDS011;17168;49.164;9.060;2022-10-16T05:24:40;1.75;;;1.40;;
30378;SDS011;17168;49.164;9.060;2022-10-16T05:27:12;3.88;;;1.60;;
30378;SDS011;17168;49.164;9.060;2022-10-16T05:29:49;2.78;;;1.60;;
30378;SDS011;17168;49.164;9.060;2022-10-16T05:32:21;2.70;;;1.77;;
30378;SDS011;17168;49.164;9.060;2022-10-16T05:34:54;2.53;;;1.52;;
30378;SDS011;17168;49.164;9.060;2022-10-16T05:37:26;2.38;;;1.50;;
30378;SDS011;17168;49.164;9.060;2022-10-16T05:39:59;1.40;;;1.30;;
30378;SDS011;17168;49.164;9.060;2022-10-16T05:42:31;1.70;;;1.60;;
30378;SDS011;17168;49.164;9.060;2022-10-16T05:45:03;6.30;;;2.08;;
30378;SDS011;17168;49.164;9.060;2022-10-16T05:47:36;4.10;;;1.85;;
30378;SDS011;17168;49.164;9.060;2022-10-16T05:50:09;3.35;;;2.00;;
30378;SDS011;17168;49.164;9.060;2022-10-16T05:52:41;2.13;;;1.70;;
30378;SDS011;17168;49.164;9.060;2022-10-16T05:55:13;2.47;;;1.73;;
30378;SDS011;17168;49.164;9.060;2022-10-16T05:57:45;2.67;;;1.90;;
30378;SDS011;17168;49.164;9.060;2022-10-16T06:00:16;3.08;;;1.90;;
30378;SDS011;17168;49.164;9.060;2022-10-16T06:02:48;2.50;;;1.70;;
30378;SDS011;17168;49.164;9.060;2022-10-16T06:05:21;2.05;;;1.58;;
30378;SDS011;17168;49.164;9.060;2022-10-16T06:07:53;4.38;;;1.60;;
30378;SDS011;17168;49.164;9.060;2022-10-16T06:10:25;3.10;;;1.85;;
30378;SDS011;17168;49.164;9.060;2022-10-16T06:12:57;3.20;;;1.60;;
30378;SDS011;17168;49.164;9.060;2022-10-16T06:15:29;3.05;;;1.65;;
30378;SDS011;17168;49.164;9.060;2022-10-16T06:18:01;3.88;;;1.60;;
30378;SDS011;17168;49.164;9.060;2022-10-16T06:20:34;4.03;;;1.88;;
30378;SDS011;17168;49.164;9.060;2022-10-16T06:23:06;2.80;;;1.80;;
30378;SDS011;17168;49.164;9.060;2022-10-16T06:25:38;1.85;;;1.70;;
30378;SDS011;17168;49.164;9.060;2022-10-16T06:28:09;6.53;;;1.83;;
30378;SDS011;17168;49.164;9.060;2022-10-16T06:30:41;4.32;;;1.60;;
30378;SDS011;17168;49.164;9.060;2022-10-16T06:33:16;3.15;;;1.73;;
30378;SDS011;17168;49.164;9.060;2022-10-16T06:35:49;2.00;;;1.80;;
30378;SDS011;17168;49.164;9.060;2022-10-16T06:38:21;5.60;;;2.20;;
30378;SDS011;17168;49.164;9.060;2022-10-16T06:40:53;2.92;;;2.00;;
30378;SDS011;17168;49.164;9.060;2022-10-16T06:43:25;9.80;;;1.95;;
30378;SDS011;17168;49.164;9.060;2022-10-16T06:45:58;1.43;;;1.33;;
30378;SDS011;17168;49.164;9.060;2022-10-16T06:48:31;3.35;;;1.83;;
30378;SDS011;17168;49.164;9.060;2022-10-16T06:51:05;4.18;;;2.00;;
30378;SDS011;17168;49.164;9.060;2022-10-16T06:53:40;5.88;;;1.80;;
30378;SDS011;17168;49.164;9.060;2022-10-16T06:56:33;5.57;;;1.77;;
30378;SDS011;17168;49.164;9.060;2022-10-16T06:59:05;3.38;;;1.80;;
30378;SDS011;17168;49.164;9.060;2022-10-16T07:01:37;2.17;;;1.70;;
30378;SDS011;17168;49.164;9.060;2022-10-16T07:04:09;3.30;;;1.80;;
30378;SDS011;17168;49.164;9.060;2022-10-16T07:06:42;2.45;;;1.58;;
30378;SDS011;17168;49.164;9.060;2022-10-16T07:09:13;4.60;;;1.60;;
30378;SDS011;17168;49.164;9.060;2022-10-16T07:11:45;2.85;;;1.70;;
30378;SDS011;17168;49.164;9.060;2022-10-16T07:14:18;3.35;;;1.80;;
30378;SDS011;17168;49.164;9.060;2022-10-16T07:16:51;3.75;;;1.85;;
30378;SDS011;17168;49.164;9.060;2022-10-16T07:19:23;1.98;;;1.50;;
30378;SDS011;17168;49.164;9.060;2022-10-16T07:22:00;2.03;;;1.60;;
30378;SDS011;17168;49.164;9.060;2022-10-16T07:24:32;4.70;;;1.73;;
30378;SDS011;17168;49.164;9.060;2022-10-16T07:27:04;3.95;;;1.70;;
30378;SDS011;17168;49.164;9.060;2022-10-16T07:29:36;3.15;;;1.60;;
30378;SDS011;17168;49.164;9.060;2022-10-16T07:32:08;1.48;;;1.30;;
30378;SDS011;17168;49.164;9.060;2022-10-16T07:34:40;7.18;;;1.50;;
30378;SDS011;17168;49.164;9.060;2022-10-16T07:37:13;2.40;;;1.50;;
30378;SDS011;17168;49.164;9.060;2022-10-16T07:39:45;1.55;;;1.40;;
30378;SDS011;17168;49.164;9.060;2022-10-16T07:42:17;5.13;;;1.60;;
30378;SDS011;17168;49.164;9.060;2022-10-16T07:44:49;2.83;;;1.60;;
30378;SDS011;17168;49.164;9.060;2022-10-16T07:47:20;2.25;;;1.48;;
30378;SDS011;17168;49.164;9.060;2022-10-16T07:49:52;2.75;;;1.75;;
30378;SDS011;17168;49.164;9.060;2022-10-16T07:52:26;3.10;;;1.80;;
30378;SDS011;17168;49.164;9.060;2022-10-16T07:54:57;4.65;;;1.85;;
30378;SDS011;17168;49.164;9.060;2022-10-16T07:57:29;2.55;;;1.60;;
30378;SDS011;17168;49.164;9.060;2022-10-16T08:00:01;2.83;;;1.50;;
30378;SDS011;17168;49.164;9.060;2022-10-16T08:02:33;2.75;;;1.75;;
30378;SDS011;17168;49.164;9.060;2022-10-16T08:05:05;3.03;;;1.88;;
30378;SDS011;17168;49.164;9.060;2022-10-16T08:07:39;3.50;;;1.60;;
30378;SDS011;17168;49.164;9.060;2022-10-16T08:10:11;3.67;;;1.40;;
30378;SDS011;17168;49.164;9.060;2022-10-16T08:12:48;3.78;;;1.63;;
30378;SDS011;17168;49.164;9.060;2022-10-16T08:15:20;5.63;;;1.70;;
30378;SDS011;17168;49.164;9.060;2022-10-16T08:17:56;3.70;;;1.67;;
30378;SDS011;17168;49.164;9.060;2022-10-16T08:20:29;3.88;;;1.33;;
30378;SDS011;17168;49.164;9.060;2022-10-16T08:23:04;4.53;;;1.48;;
30378;SDS011;17168;49.164;9.060;2022-10-16T08:25:36;4.90;;;1.83;;
30378;SDS011;17168;49.164;9.060;2022-10-16T08:28:10;4.90;;;1.67;;
30378;SDS011;17168;49.164;9.060;2022-10-16T08:30:42;3.10;;;1.80;;
30378;SDS011;17168;49.164;9.060;2022-10-16T08:33:14;2.45;;;1.50;;
30378;SDS011;17168;49.164;9.060;2022-10-16T08:35:50;4.82;;;1.52;;
30378;SDS011;17168;49.164;9.060;2022-10-16T08:38:23;2.33;;;1.60;;
30378;SDS011;17168;49.164;9.060;2022-10-16T08:40:56;3.97;;;1.55;;
30378;SDS011;17168;49.164;9.060;2022-10-16T08:43:43;1.65;;;1.20;;
30378;SDS011;17168;49.164;9.060;2022-10-16T09:15:16;5.03;;;1.60;;
30378;SDS011;17168;49.164;9.060;2022-10-16T09:17:57;4.57;;;1.35;;
30378;SDS011;17168;49.164;9.060;2022-10-16T09:20:34;3.17;;;1.35;;
30378;SDS011;17168;49.164;9.060;2022-10-16T09:23:24;4.68;;;1.48;;
30378;SDS011;17168;49.164;9.060;2022-10-16T09:25:58;2.78;;;1.38;;
30378;SDS011;17168;49.164;9.060;2022-10-16T09:28:30;2.13;;;1.30;;
30378;SDS011;17168;49.164;9.060;2022-10-16T09:31:03;2.55;;;1.50;;
30378;SDS011;17168;49.164;9.060;2022-10-16T09:33:36;2.67;;;1.42;;
30378;SDS011;17168;49.164;9.060;2022-10-16T09:36:11;2.00;;;1.30;;
30378;SDS011;17168;49.164;9.060;2022-10-16T09:41:17;4.60;;;1.55;;
30378;SDS011;17168;49.164;9.060;2022-10-16T09:43:52;4.85;;;1.27;;
30378;SDS011;17168;49.164;9.060;2022-10-16T09:46:29;6.18;;;1.60;;
30378;SDS011;17168;49.164;9.060;2022-10-16T09:49:03;2.20;;;1.50;;
30378;SDS011;17168;49.164;9.060;2022-10-16T09:51:37;2.40;;;1.70;;
30378;SDS011;17168;49.164;9.060;2022-10-16T09:54:13;3.58;;;1.70;;
30378;SDS011;17168;49.164;9.060;2022-10-16T09:56:46;3.92;;;1.50;;
30378;SDS011;17168;49.164;9.060;2022-10-16T09:59:23;1.85;;;1.27;;
30378;SDS011;17168;49.164;9.060;2022-10-16T10:01:56;1.83;;;1.58;;
30378;SDS011;17168;49.164;9.060;2022-10-16T10:04:37;3.65;;;1.50;;
30378;SDS011;17168;49.164;9.060;2022-10-16T10:07:16;5.60;;;1.45;;
30378;SDS011;17168;49.164;9.060;2022-10-16T10:09:50;2.38;;;1.60;;
30378;SDS011;17168;49.164;9.060;2022-10-16T10:12:23;2.40;;;1.60;;
30378;SDS011;17168;49.164;9.060;2022-10-16T10:14:57;2.83;;;1.48;;
30378;SDS011;17168;49.164;9.060;2022-10-16T10:17:46;2.80;;;1.50;;
30378;SDS011;17168;49.164;9.060;2022-10-16T10:20:23;4.25;;;1.40;;
30378;SDS011;17168;49.164;9.060;2022-10-16T10:22:57;2.22;;;1.30;;
30378;SDS011;17168;49.164;9.060;2022-10-16T10:25:39;4.10;;;1.50;;
30378;SDS011;17168;49.164;9.060;2022-10-16T10:28:23;2.33;;;1.30;;
30378;SDS011;17168;49.164;9.060;2022-10-16T10:31:08;3.03;;;1.30;;
30378;SDS011;17168;49.164;9.060;2022-10-16T10:33:50;3.03;;;1.15;;
30378;SDS011;17168;49.164;9.060;2022-10-16T10:36:30;2.88;;;1.20;;
30378;SDS011;17168;49.164;9.060;2022-10-16T10:39:06;2.38;;;1.20;;
30378;SDS011;17168;49.164;9.060;2022-10-16T10:41:59;2.85;;;1.23;;
30378;SDS011;17168;49.164;9.060;2022-10-16T10:44:50;5.93;;;1.30;;
30378;SDS011;17168;49.164;9.060;2022-10-16T10:47:37;3.63;;;1.30;;
30378;SDS011;17168;49.164;9.060;2022-10-16T10:50:20;2.67;;;1.65;;
30378;SDS011;17168;49.164;9.060;2022-10-16T10:52:58;2.17;;;1.40;;
30378;SDS011;17168;49.164;9.060;2022-10-16T10:55:37;4.63;;;1.42;;
30378;SDS011;17168;49.164;9.060;2022-10-16T10:58:24;2.97;;;1.30;;
30378;SDS011;17168;49.164;9.060;2022-10-16T11:01:23;2.63;;;1.23;;
30378;SDS011;17168;49.164;9.060;2022-10-16T11:04:14;3.00;;;1.60;;
30378;SDS011;17168;49.164;9.060;2022-10-16T11:06:59;2.95;;;1.48;;
30378;SDS011;17168;49.164;9.060;2022-10-16T11:09:36;1.60;;;1.50;;
30378;SDS011;17168;49.164;9.060;2022-10-16T11:12:11;6.22;;;1.45;;
30378;SDS011;17168;49.164;9.060;2022-10-16T11:14:48;3.63;;;1.73;;
30378;SDS011;17168;49.164;9.060;2022-10-16T11:17:26;3.92;;;1.50;;
30378;SDS011;17168;49.164;9.060;2022-10-16T11:20:02;3.83;;;1.60;;
30378;SDS011;17168;49.164;9.060;2022-10-16T11:25:45;2.83;;;1.50;;
30378;SDS011;17168;49.164;9.060;2022-10-16T11:28:19;1.98;;;1.30;;
30378;SDS011;17168;49.164;9.060;2022-10-16T11:31:02;4.57;;;1.50;;
30378;SDS011;17168;49.164;9.060;2022-10-16T11:33:39;2.50;;;1.35;;
30378;SDS011;17168;49.164;9.060;2022-10-16T11:36:16;3.40;;;1.40;;
30378;SDS011;17168;49.164;9.060;2022-10-16T11:38:55;1.58;;;1.13;;
30378;SDS011;17168;49.164;9.060;2022-10-16T11:41:32;4.82;;;1.40;;
30378;SDS011;17168;49.164;9.060;2022-10-16T11:44:12;2.55;;;1.10;;
30378;SDS011;17168;49.164;9.060;2022-10-16T11:46:51;2.17;;;1.13;;
30378;SDS011;17168;49.164;9.060;2022-10-16T11:49:53;1.80;;;1.23;;
30378;SDS011;17168;49.164;9.060;2022-10-16T11:52:32;3.45;;;1.30;;
30378;SDS011;17168;49.164;9.060;2022-10-16T11:55:13;4.10;;;1.20;;
30378;SDS011;17168;49.164;9.060;2022-10-16T11:57:49;1.67;;;1.00;;
30378;SDS011;17168;49.164;9.060;2022-10-16T12:00:23;1.48;;;1.20;;
30378;SDS011;17168;49.164;9.060;2022-10-16T12:02:59;2.10;;;0.93;;
30378;SDS011;17168;49.164;9.060;2022-10-16T12:05:40;2.25;;;1.45;;
30378;SDS011;17168;49.164;9.060;2022-10-16T12:08:26;1.10;;;0.90;;
30378;SDS011;17168;49.164;9.060;2022-10-16T12:11:07;1.73;;;1.20;;
30378;SDS011;17168;49.164;9.060;2022-10-16T12:13:41;1.20;;;1.10;;
30378;SDS011;17168;49.164;9.060;2022-10-16T12:16:23;1.42;;;0.90;;
30378;SDS011;17168;49.164;9.060;2022-10-16T12:19:10;3.08;;;1.10;;
30378;SDS011;17168;49.164;9.060;2022-10-16T12:21:43;3.15;;;1.17;;
30378;SDS011;17168;49.164;9.060;2022-10-16T12:24:20;2.08;;;1.20;;
30378;SDS011;17168;49.164;9.060;2022-10-16T12:27:06;3.65;;;1.48;;
30378;SDS011;17168;49.164;9.060;2022-10-16T12:29:54;2.22;;;1.00;;
30378;SDS011;17168;49.164;9.060;2022-10-16T12:32:28;3.10;;;1.10;;
30378;SDS011;17168;49.164;9.060;2022-10-16T12:35:18;5.32;;;1.27;;
30378;SDS011;17168;49.164;9.060;2022-10-16T12:37:51;4.00;;;1.05;;
30378;SDS011;17168;49.164;9.060;2022-10-16T12:40:25;1.73;;;1.10;;
30378;SDS011;17168;49.164;9.060;2022-10-16T12:43:10;6.35;;;1.20;;
30378;SDS011;17168;49.164;9.060;2022-10-16T12:45:43;2.83;;;1.05;;
30378;SDS011;17168;49.164;9.060;2022-10-16T12:48:20;3.38;;;1.20;;
30378;SDS011;17168;49.164;9.060;2022-10-16T12:51:12;2.03;;;1.20;;
30378;SDS011;17168;49.164;9.060;2022-10-16T12:53:58;2.13;;;1.23;;
30378;SDS011;17168;49.164;9.060;2022-10-16T12:56:34;3.63;;;1.20;;
30378;SDS011;17168;49.164;9.060;2022-10-16T12:59:21;3.22;;;1.20;;
30378;SDS011;17168;49.164;9.060;2022-10-16T13:02:08;1.83;;;1.20;;
30378;SDS011;17168;49.164;9.060;2022-10-16T13:05:01;2.42;;;1.33;;
30378;SDS011;17168;49.164;9.060;2022-10-16T13:07:56;4.82;;;1.20;;
30378;SDS011;17168;49.164;9.060;2022-10-16T13:10:37;1.67;;;1.10;;
30378;SDS011;17168;49.164;9.060;2022-10-16T13:13:22;1.63;;;1.08;;
30378;SDS011;17168;49.164;9.060;2022-10-16T13:16:12;3.28;;;1.10;;
30378;SDS011;17168;49.164;9.060;2022-10-16T13:18:55;2.83;;;1.02;;
30378;SDS011;17168;49.164;9.060;2022-10-16T13:21:39;1.27;;;1.17;;
30378;SDS011;17168;49.164;9.060;2022-10-16T13:24:20;2.03;;;1.20;;
30378;SDS011;17168;49.164;9.060;2022-10-16T13:27:05;2.75;;;0.90;;
30378;SDS011;17168;49.164;9.060;2022-10-16T13:29:44;3.97;;;1.00;;
30378;SDS011;17168;49.164;9.060;2022-10-16T13:32:24;2.15;;;1.00;;
30378;SDS011;17168;49.164;9.060;2022-10-16T13:34:57;3.10;;;1.10;;
30378;SDS011;17168;49.164;9.060;2022-10-16T13:37:29;1.60;;;1.48;;
30378;SDS011;17168;49.164;9.060;2022-10-16T13:40:09;5.15;;;1.80;;
30378;SDS011;17168;49.164;9.060;2022-10-16T13:42:50;3.53;;;2.05;;
30378;SDS011;17168;49.164;9.060;2022-10-16T13:45:24;3.47;;;1.83;;
30378;SDS011;17168;49.164;9.060;2022-10-16T13:48:05;4.63;;;1.90;;
30378;SDS011;17168;49.164;9.060;2022-10-16T13:53:13;2.15;;;1.38;;
30378;SDS011;17168;49.164;9.060;2022-10-16T13:55:45;1.75;;;1.30;;
30378;SDS011;17168;49.164;9.060;2022-10-16T13:58:17;4.38;;;1.30;;
30378;SDS011;17168;49.164;9.060;2022-10-16T14:00:52;4.15;;;1.38;;
30378;SDS011;17168;49.164;9.060;2022-10-16T14:03:28;5.10;;;1.48;;
30378;SDS011;17168;49.164;9.060;2022-10-16T14:06:01;7.38;;;1.50;;
30378;SDS011;17168;49.164;9.060;2022-10-16T14:08:35;3.78;;;1.40;;
30378;SDS011;17168;49.164;9.060;2022-10-16T14:11:07;6.88;;;1.25;;
30378;SDS011;17168;49.164;9.060;2022-10-16T14:13:39;2.65;;;1.10;;
30378;SDS011;17168;49.164;9.060;2022-10-16T14:16:16;4.00;;;1.58;;
30378;SDS011;17168;49.164;9.060;2022-10-16T14:18:55;3.13;;;1.60;;
30378;SDS011;17168;49.164;9.060;2022-10-16T14:21:28;4.13;;;1.52;;
30378;SDS011;17168;49.164;9.060;2022-10-16T14:24:10;3.85;;;1.60;;
30378;SDS011;17168;49.164;9.060;2022-10-16T14:26:42;2.88;;;1.98;;
30378;SDS011;17168;49.164;9.060;2022-10-16T14:29:20;2.45;;;1.58;;
30378;SDS011;17168;49.164;9.060;2022-10-16T14:31:54;2.67;;;1.45;;
30378;SDS011;17168;49.164;9.060;2022-10-16T14:34:30;2.58;;;1.65;;
30378;SDS011;17168;49.164;9.060;2022-10-16T14:37:06;6.75;;;2.47;;
30378;SDS011;17168;49.164;9.060;2022-10-16T14:39:58;2.60;;;2.10;;
30378;SDS011;17168;49.164;9.060;2022-10-16T14:42:32;1.65;;;1.55;;
30378;SDS011;17168;49.164;9.060;2022-10-16T14:45:07;1.60;;;1.40;;
30378;SDS011;17168;49.164;9.060;2022-10-16T14:47:46;3.42;;;1.77;;
30378;SDS011;17168;49.164;9.060;2022-10-16T14:50:22;1.75;;;1.30;;
30378;SDS011;17168;49.164;9.060;2022-10-16T14:52:54;3.22;;;1.70;;
30378;SDS011;17168;49.164;9.060;2022-10-16T14:55:26;3.33;;;1.63;;
30378;SDS011;17168;49.164;9.060;2022-10-16T14:57:58;1.95;;;1.70;;
30378;SDS011;17168;49.164;9.060;2022-10-16T15:00:31;2.30;;;1.90;;
30378;SDS011;17168;49.164;9.060;2022-10-16T15:03:03;4.05;;;1.90;;
30378;SDS011;17168;49.164;9.060;2022-10-16T15:05:36;2.00;;;1.80;;
30378;SDS011;17168;49.164;9.060;2022-10-16T15:08:08;2.72;;;1.77;;
30378;SDS011;17168;49.164;9.060;2022-10-16T15:10:40;2.72;;;1.73;;
30378;SDS011;17168;49.164;9.060;2022-10-16T15:13:14;1.77;;;1.42;;
30378;SDS011;17168;49.164;9.060;2022-10-16T15:15:46;3.95;;;1.83;;
30378;SDS011;17168;49.164;9.060;2022-10-16T15:18:20;2.47;;;1.83;;
30378;SDS011;17168;49.164;9.060;2022-10-16T15:20:54;2.58;;;1.70;;
30378;SDS011;17168;49.164;9.060;2022-10-16T15:23:26;4.95;;;1.80;;
30378;SDS011;17168;49.164;9.060;2022-10-16T15:25:58;3.50;;;2.05;;
30378;SDS011;17168;49.164;9.060;2022-10-16T15:28:30;2.97;;;1.77;;
30378;SDS011;17168;49.164;9.060;2022-10-16T15:31:02;4.65;;;2.10;;
30378;SDS011;17168;49.164;9.060;2022-10-16T15:33:36;4.13;;;1.80;;
30378;SDS011;17168;49.164;9.060;2022-10-16T15:36:11;5.88;;;2.08;;
30378;SDS011;17168;49.164;9.060;2022-10-16T15:41:16;6.90;;;1.85;;
30378;SDS011;17168;49.164;9.060;2022-10-16T15:43:48;5.28;;;1.83;;
30378;SDS011;17168;49.164;9.060;2022-10-16T15:46:21;4.60;;;1.95;;
30378;SDS011;17168;49.164;9.060;2022-10-16T15:48:55;2.13;;;1.77;;
30378;SDS011;17168;49.164;9.060;2022-10-16T15:51:29;4.97;;;1.85;;
30378;SDS011;17168;49.164;9.060;2022-10-16T15:54:03;2.00;;;1.50;;
30378;SDS011;17168;49.164;9.060;2022-10-16T15:56:35;2.65;;;1.58;;
30378;SDS011;17168;49.164;9.060;2022-10-16T15:59:08;2.55;;;1.60;;
30378;SDS011;17168;49.164;9.060;2022-10-16T16:01:40;2.72;;;1.98;;
30378;SDS011;17168;49.164;9.060;2022-10-16T16:04:12;4.30;;;1.70;;
30378;SDS011;17168;49.164;9.060;2022-10-16T16:07:05;4.13;;;1.90;;
30378;SDS011;17168;49.164;9.060;2022-10-16T16:09:38;5.43;;;2.00;;
30378;SDS011;17168;49.164;9.060;2022-10-16T16:22:47;4.47;;;1.88;;
30378;SDS011;17168;49.164;9.060;2022-10-16T16:27:51;4.72;;;2.15;;
30378;SDS011;17168;49.164;9.060;2022-10-16T16:30:22;2.72;;;2.28;;
30378;SDS011;17168;49.164;9.060;2022-10-16T16:32:58;5.88;;;2.10;;